Time;durP1;ratioP1;P1;durP2;ratioP2;P2;SDS_P1;SDS_P2;PMS_P1;PMS_P2;Temp;Humidity;BMP_temperature;BMP_pressure;BME280_temperature;BME280_humidity;BME280_pressure;Samples;Min_cycle;Max_cycle;Signal;HPM_P1;HPM_P2
2023/09/02 00:00:18;;;;;;;11.60;8.10;;;;;;;19.98;57.93;100424.78;108129;1254;70135;-67
2023/09/02 00:02:45;;;;;;;13.40;9.10;;;;;;;19.95;57.66;100420.67;108149;1254;72513;-67
2023/09/02 00:05:11;;;;;;;19.00;11.80;;;;;;;19.81;57.98;100422.89;108145;1254;59637;-65
2023/09/02 00:07:38;;;;;;;13.10;9.50;;;;;;;19.77;57.88;100424.25;108147;1254;59394;-67
2023/09/02 00:10:05;;;;;;;11.30;8.00;;;;;;;19.75;57.96;100424.95;108028;1253;73669;-67
2023/09/02 00:12:32;;;;;;;12.00;9.20;;;;;;;19.72;57.95;100427.27;108217;1254;69155;-66
2023/09/02 00:14:59;;;;;;;10.20;7.20;;;;;;;19.71;57.73;100425.96;108104;1254;72635;-67
2023/09/02 00:17:25;;;;;;;9.90;7.80;;;;;;;19.78;57.62;100422.95;108070;1258;61938;-66
2023/09/02 00:19:52;;;;;;;10.10;7.60;;;;;;;19.69;57.69;100424.83;108143;1254;60005;-66
2023/09/02 00:22:18;;;;;;;9.00;7.30;;;;;;;19.61;58.05;100426.64;108265;1254;59093;-67
2023/09/02 00:24:45;;;;;;;10.00;7.40;;;;;;;19.55;58.03;100427.93;108164;1254;59475;-66
2023/09/02 00:27:12;;;;;;;9.00;7.20;;;;;;;19.56;57.83;100428.93;108075;1256;59723;-67
2023/09/02 00:29:38;;;;;;;11.20;7.90;;;;;;;19.55;57.88;100428.67;108187;1254;60655;-68
2023/09/02 00:32:05;;;;;;;9.50;7.20;;;;;;;19.46;57.97;100431.23;108135;1254;60307;-66
2023/09/02 00:34:32;;;;;;;9.60;7.00;;;;;;;19.36;58.15;100435.61;108098;1255;73095;-66
2023/09/02 00:36:58;;;;;;;12.30;8.40;;;;;;;19.34;58.15;100437.05;107951;1256;69823;-67
2023/09/02 00:39:25;;;;;;;12.50;8.00;;;;;;;19.20;58.40;100433.56;108034;1259;72941;-67
2023/09/02 00:41:53;;;;;;;9.40;7.80;;;;;;;19.26;58.17;100431.54;107948;1256;63037;-66
2023/09/02 00:44:19;;;;;;;9.20;7.40;;;;;;;19.20;58.26;100427.88;108062;1257;60338;-67
2023/09/02 00:46:46;;;;;;;11.10;8.20;;;;;;;19.16;58.31;100424.57;108061;1254;72153;-65
2023/09/02 00:49:13;;;;;;;9.20;7.60;;;;;;;19.09;58.54;100427.33;108098;1257;70583;-66
2023/09/02 00:51:40;;;;;;;9.70;7.80;;;;;;;18.99;58.72;100429.43;108075;1254;72545;-67
2023/09/02 00:54:06;;;;;;;7.30;5.90;;;;;;;18.88;58.87;100434.98;107913;1257;59442;-66
2023/09/02 00:56:33;;;;;;;7.90;6.20;;;;;;;18.82;58.99;100437.17;107933;1254;60170;-66
2023/09/02 00:59:01;;;;;;;7.00;5.60;;;;;;;18.93;58.72;100436.42;107906;1254;71796;-67
2023/09/02 01:01:28;;;;;;;6.50;5.30;;;;;;;18.85;58.89;100437.36;108127;1254;70454;-66
2023/09/02 01:03:56;;;;;;;8.50;5.40;;;;;;;18.78;59.11;100440.43;108163;1255;71981;-67
2023/09/02 01:06:22;;;;;;;11.20;5.60;;;;;;;18.68;59.43;100444.11;107954;1257;61862;-67
2023/09/02 01:08:49;;;;;;;8.30;5.50;;;;;;;18.71;59.32;100450.70;108092;1257;59753;-68
2023/09/02 01:11:15;;;;;;;7.90;5.60;;;;;;;18.75;59.07;100449.20;107975;1257;57603;-67
2023/09/02 01:13:42;;;;;;;10.50;6.00;;;;;;;18.81;58.88;100451.83;108056;1256;70401;-68
2023/09/02 01:16:09;;;;;;;8.50;5.60;;;;;;;18.81;58.78;100451.96;108041;1255;72415;-67
2023/09/02 01:18:36;;;;;;;7.50;5.70;;;;;;;18.79;58.89;100454.44;107827;1254;61867;-67
2023/09/02 01:21:19;;;;;;;6.90;5.90;;;;;;;18.74;59.16;100458.50;107968;1257;59632;-67
2023/09/02 01:23:51;;;;;;;9.30;6.30;;;;;;;18.61;59.51;100454.65;108030;1256;73416;-67
2023/09/02 01:26:42;;;;;;;8.60;5.50;;;;;;;18.57;59.62;100450.69;108111;1254;70345;-67
2023/09/02 01:29:09;;;;;;;12.90;6.30;;;;;;;18.76;59.15;100456.42;107734;1254;73225;-67
2023/09/02 01:31:36;;;;;;;7.40;5.80;;;;;;;18.74;59.16;100457.58;108188;1254;61312;-66
2023/09/02 01:34:06;;;;;;;11.00;5.90;;;;;;;18.79;59.16;100457.65;108152;1254;60209;-67
2023/09/02 01:36:33;;;;;;;6.80;5.30;;;;;;;18.79;59.05;100453.03;107926;1254;72946;-66
2023/09/02 01:39:00;;;;;;;7.30;6.00;;;;;;;18.75;58.93;100456.80;107958;1254;70765;-67
2023/09/02 01:41:27;;;;;;;8.80;6.50;;;;;;;18.72;58.89;100458.60;108109;1254;72568;-67
2023/09/02 01:43:54;;;;;;;6.70;5.20;;;;;;;18.75;58.76;100461.42;108118;1254;62484;-67
2023/09/02 01:46:21;;;;;;;8.40;5.40;;;;;;;18.78;58.97;100465.33;107906;1254;60394;-67
2023/09/02 01:48:47;;;;;;;7.50;5.80;;;;;;;18.86;58.71;100457.91;107892;1254;71581;-66
2023/09/02 01:51:14;;;;;;;7.20;5.20;;;;;;;18.80;58.61;100452.97;107783;1261;70942;-66
2023/09/02 01:53:40;;;;;;;7.10;5.50;;;;;;;18.61;59.37;100454.46;107875;1254;59640;-67
2023/09/02 01:56:07;;;;;;;8.20;5.50;;;;;;;18.61;59.50;100447.59;108102;1254;59761;-67
2023/09/02 01:58:34;;;;;;;7.40;6.10;;;;;;;18.61;59.68;100455.58;108087;1258;59997;-67
2023/09/02 02:01:01;;;;;;;8.00;6.00;;;;;;;18.78;59.24;100453.45;108091;1254;72782;-66
2023/09/02 02:03:34;;;;;;;13.40;6.00;;;;;;;18.87;58.86;100456.23;107961;1261;68749;-67
2023/09/02 02:06:01;;;;;;;8.40;6.10;;;;;;;18.88;58.73;100454.72;108195;1254;72555;-67
2023/09/02 02:08:55;;;;;;;9.20;5.80;;;;;;;19.00;58.25;100450.55;108177;1254;61823;-68
2023/09/02 02:11:22;;;;;;;7.20;6.20;;;;;;;18.86;58.48;100455.39;108012;1254;60030;-67
2023/09/02 02:13:50;;;;;;;6.60;5.70;;;;;;;18.65;59.39;100455.30;108096;1253;72889;-67
2023/09/02 02:16:22;;;;;;;7.80;6.30;;;;;;;18.59;59.45;100458.34;108113;1254;70572;-67
2023/09/02 02:18:49;;;;;;;7.40;5.50;;;;;;;18.59;59.49;100462.48;107963;1254;72711;-67
2023/09/02 02:21:15;;;;;;;9.40;6.40;;;;;;;18.65;59.61;100459.06;108127;1254;61862;-67
2023/09/02 02:23:42;;;;;;;8.00;6.10;;;;;;;18.55;59.78;100460.62;107956;1254;60214;-66
2023/09/02 02:26:08;;;;;;;6.50;5.50;;;;;;;18.49;59.83;100460.45;107949;1254;73843;-67
2023/09/02 02:28:37;;;;;;;10.80;6.10;;;;;;;18.50;59.80;100460.19;108058;1253;70958;-67
2023/09/02 02:31:04;;;;;;;9.90;5.90;;;;;;;18.62;59.60;100463.14;107913;1259;73056;-66
2023/09/02 02:33:31;;;;;;;7.50;6.30;;;;;;;18.54;59.78;100465.96;108089;1254;62048;-66
2023/09/02 02:35:57;;;;;;;8.90;6.40;;;;;;;18.32;60.26;100464.02;107901;1254;60384;-67
2023/09/02 02:38:24;;;;;;;7.60;5.80;;;;;;;18.28;60.67;100470.36;108093;1254;59076;-66
2023/09/02 02:40:51;;;;;;;10.30;6.90;;;;;;;18.23;60.73;100471.15;108087;1257;69138;-67
2023/09/02 02:43:23;;;;;;;7.00;6.20;;;;;;;18.13;60.97;100471.44;108031;1254;60536;-67
2023/09/02 02:45:49;;;;;;;8.80;6.60;;;;;;;18.18;60.86;100475.95;108082;1254;61781;-67
2023/09/02 02:48:16;;;;;;;8.30;6.30;;;;;;;18.16;60.71;100479.58;108083;1254;60386;-66
2023/09/02 02:50:43;;;;;;;9.60;6.50;;;;;;;18.21;60.68;100479.63;108102;1254;72528;-68
2023/09/02 02:53:10;;;;;;;7.50;5.90;;;;;;;18.24;60.53;100487.61;108089;1254;70278;-67
2023/09/02 02:55:36;;;;;;;8.00;6.10;;;;;;;18.27;60.36;100490.50;107870;1254;72394;-66
2023/09/02 02:58:03;;;;;;;7.90;6.70;;;;;;;18.16;60.53;100489.77;108116;1257;60719;-64
2023/09/02 03:00:30;;;;;;;10.80;7.00;;;;;;;17.97;60.92;100490.39;108119;1254;61585;-63
2023/09/02 03:02:57;;;;;;;10.30;6.30;;;;;;;17.96;60.80;100490.13;108108;1254;72728;-65
2023/09/02 03:05:24;;;;;;;7.70;6.10;;;;;;;17.91;60.95;100487.92;108030;1254;70110;-67
2023/09/02 03:07:51;;;;;;;7.80;6.30;;;;;;;18.06;60.46;100488.95;108084;1254;60278;-67
2023/09/02 03:10:18;;;;;;;7.50;5.50;;;;;;;18.09;60.19;100491.23;108073;1254;61634;-66
2023/09/02 03:12:44;;;;;;;7.50;6.00;;;;;;;18.02;60.50;100492.92;107874;1254;60356;-66
2023/09/02 03:15:11;;;;;;;8.10;6.10;;;;;;;18.03;60.55;100489.84;108153;1254;74333;-67
2023/09/02 03:17:39;;;;;;;9.80;6.70;;;;;;;17.84;60.94;100491.00;108022;1254;70437;-67
2023/09/02 03:20:07;;;;;;;7.80;6.30;;;;;;;17.90;60.81;100490.44;108097;1254;72496;-66
2023/09/02 03:22:34;;;;;;;10.40;6.30;;;;;;;18.03;60.35;100492.16;108124;1254;61503;-67
2023/09/02 03:25:01;;;;;;;10.60;6.80;;;;;;;18.11;60.12;100492.36;108060;1254;60387;-68
2023/09/02 03:27:28;;;;;;;9.00;6.30;;;;;;;18.12;60.12;100492.98;107890;1256;73753;-67
2023/09/02 03:29:56;;;;;;;8.30;6.10;;;;;;;18.15;60.58;100494.25;108138;1254;70271;-66
2023/09/02 03:32:26;;;;;;;10.40;6.60;;;;;;;18.20;60.53;100491.81;108123;1254;70301;-66
2023/09/02 03:34:53;;;;;;;8.60;6.20;;;;;;;18.33;60.49;100494.70;108140;1253;60826;-66
2023/09/02 03:37:19;;;;;;;7.90;6.30;;;;;;;18.37;60.60;100493.23;108119;1255;60437;-67
2023/09/02 03:39:47;;;;;;;15.90;6.70;;;;;;;18.44;60.45;100496.70;108055;1254;73594;-67
2023/09/02 03:42:13;;;;;;;11.90;5.80;;;;;;;18.44;60.61;100495.77;108004;1254;70830;-66
2023/09/02 03:44:40;;;;;;;9.20;6.30;;;;;;;18.46;60.61;100499.95;108095;1254;72705;-67
2023/09/02 03:47:07;;;;;;;9.10;5.70;;;;;;;18.50;60.55;100504.14;108040;1254;59236;-68
2023/09/02 03:49:33;;;;;;;10.10;6.60;;;;;;;18.53;60.70;100498.61;108086;1259;60534;-67
2023/09/02 03:52:01;;;;;;;9.10;6.70;;;;;;;18.65;60.47;100501.39;108138;1254;74397;-67
2023/09/02 03:54:28;;;;;;;8.30;5.90;;;;;;;18.96;60.39;100497.27;108067;1254;71051;-67
2023/09/02 03:56:55;;;;;;;12.30;5.90;;;;;;;19.35;60.29;100492.65;108106;1254;73057;-67
2023/09/02 03:59:21;;;;;;;7.00;5.20;;;;;;;19.84;59.58;100496.77;108747;1254;60490;-66
2023/09/02 04:01:48;;;;;;;6.80;5.70;;;;;;;20.38;58.78;100498.38;108634;1254;58837;-69
2023/09/02 04:04:14;;;;;;;7.50;5.10;;;;;;;20.96;57.58;100498.38;108375;1257;72354;-67
2023/09/02 04:06:41;;;;;;;11.50;6.30;;;;;;;21.72;55.71;100506.07;108230;1254;70136;-68
2023/09/02 04:09:08;;;;;;;6.40;4.60;;;;;;;22.33;54.03;100509.88;108133;1254;71279;-69
2023/09/02 04:11:34;;;;;;;6.50;4.50;;;;;;;22.63;52.15;100514.41;108021;1254;61794;-68
2023/09/02 04:14:02;;;;;;;5.80;5.10;;;;;;;22.96;51.53;100515.61;108094;1258;60153;-67
2023/09/02 04:16:29;;;;;;;6.20;4.80;;;;;;;23.30;50.69;100508.55;107934;1254;73709;-68
2023/09/02 04:18:56;;;;;;;5.10;4.40;;;;;;;23.76;49.55;100509.45;108110;1254;70089;-68
2023/09/02 04:21:23;;;;;;;5.80;4.50;;;;;;;24.06;48.39;100508.29;107905;1254;72526;-67
2023/09/02 04:23:50;;;;;;;6.60;5.10;;;;;;;24.08;47.97;100508.83;107895;1259;60290;-68
2023/09/02 04:26:19;;;;;;;8.40;4.40;;;;;;;24.04;47.57;100513.52;108150;1254;60510;-68
2023/09/02 04:28:45;;;;;;;5.20;4.70;;;;;;;24.00;47.61;100517.58;108065;1254;73675;-66
2023/09/02 04:31:15;;;;;;;4.90;4.30;;;;;;;23.98;47.31;100522.43;108086;1258;70129;-67
2023/09/02 04:33:42;;;;;;;5.90;4.30;;;;;;;24.05;47.77;100524.88;108080;1254;72509;-67
2023/09/02 04:36:09;;;;;;;6.10;4.50;;;;;;;24.18;47.86;100522.17;108086;1254;61786;-67
2023/09/02 04:38:39;;;;;;;7.40;4.70;;;;;;;24.41;47.25;100522.48;108107;1254;60412;-68
2023/09/02 04:41:06;;;;;;;7.70;5.10;;;;;;;24.75;46.93;100527.15;108089;1258;73703;-68
2023/09/02 04:43:37;;;;;;;5.20;4.50;;;;;;;25.20;46.23;100528.27;108097;1254;70349;-68
2023/09/02 04:46:04;;;;;;;10.10;6.10;;;;;;;25.65;45.15;100531.69;107953;1260;72370;-68
2023/09/02 04:48:34;;;;;;;8.50;6.20;;;;;;;26.12;44.30;100534.39;108131;1254;60416;-68
2023/09/02 04:51:03;;;;;;;9.60;5.80;;;;;;;26.43;43.26;100530.35;108110;1254;60277;-67
2023/09/02 04:53:30;;;;;;;10.70;5.80;;;;;;;26.92;42.59;100534.48;107870;1259;73781;-67
2023/09/02 04:55:56;;;;;;;10.50;6.00;;;;;;;27.20;41.88;100534.63;108066;1254;70289;-68
2023/09/02 04:58:24;;;;;;;11.20;6.10;;;;;;;27.51;41.18;100534.96;107834;1256;72642;-67
2023/09/02 05:00:52;;;;;;;9.00;5.40;;;;;;;27.65;40.91;100537.05;108026;1260;60419;-68
2023/09/02 05:03:19;;;;;;;7.50;5.60;;;;;;;27.83;40.37;100537.41;107877;1254;60505;-68
2023/09/02 05:05:47;;;;;;;5.40;4.00;;;;;;;28.03;39.95;100539.03;108121;1259;73638;-68
2023/09/02 05:08:15;;;;;;;8.60;5.30;;;;;;;28.04;39.88;100540.45;108051;1254;68904;-68
2023/09/02 05:10:41;;;;;;;7.70;6.00;;;;;;;27.99;39.97;100542.89;107965;1257;71293;-68
2023/09/02 05:13:08;;;;;;;16.80;7.00;;;;;;;28.32;39.41;100535.94;108072;1254;60636;-68
2023/09/02 05:15:36;;;;;;;6.00;5.00;;;;;;;28.71;38.74;100536.55;107840;1254;60316;-68
2023/09/02 05:18:03;;;;;;;8.70;4.80;;;;;;;28.78;38.65;100536.20;108052;1258;73825;-67
2023/09/02 05:20:30;;;;;;;7.40;5.20;;;;;;;28.96;38.54;100539.10;107910;1254;70213;-68
2023/09/02 05:22:57;;;;;;;7.40;4.80;;;;;;;29.13;37.67;100534.45;108081;1257;72697;-69
2023/09/02 05:25:26;;;;;;;5.50;4.30;;;;;;;29.12;37.10;100539.94;107924;1253;60348;-68
2023/09/02 05:27:54;;;;;;;5.90;4.40;;;;;;;29.10;37.05;100541.56;108013;1259;60437;-68
2023/09/02 05:30:21;;;;;;;7.00;4.10;;;;;;;29.16;36.13;100540.20;108069;1254;73972;-68
2023/09/02 05:32:47;;;;;;;5.60;4.20;;;;;;;29.22;36.09;100542.08;108064;1254;70335;-68
2023/09/02 05:35:14;;;;;;;7.00;3.50;;;;;;;29.49;35.80;100541.64;108085;1255;72560;-69
2023/09/02 05:37:40;;;;;;;5.00;3.40;;;;;;;29.80;35.47;100541.22;108060;1254;60993;-68
2023/09/02 05:40:08;;;;;;;7.00;3.90;;;;;;;30.67;34.34;100543.05;108096;1259;60497;-68
2023/09/02 05:42:35;;;;;;;4.70;3.20;;;;;;;31.34;32.72;100546.22;108095;1254;73844;-69
2023/09/02 05:45:02;;;;;;;5.70;3.70;;;;;;;31.84;32.22;100544.67;108013;1257;70596;-68
2023/09/02 05:47:29;;;;;;;4.40;3.30;;;;;;;32.15;31.58;100543.13;108046;1259;72438;-68
2023/09/02 05:49:55;;;;;;;6.30;3.10;;;;;;;32.08;31.27;100542.92;108055;1254;60431;-69
2023/09/02 05:52:22;;;;;;;5.30;3.10;;;;;;;32.22;31.39;100544.42;108055;1255;60409;-70
2023/09/02 05:54:49;;;;;;;5.00;2.80;;;;;;;32.45;30.70;100546.70;108076;1254;59151;-69
2023/09/02 05:57:15;;;;;;;5.70;3.10;;;;;;;32.58;30.77;100547.48;108199;1254;70353;-68
2023/09/02 05:59:44;;;;;;;7.10;3.10;;;;;;;32.76;30.26;100543.52;108186;1254;60453;-69
2023/09/02 06:02:11;;;;;;;4.30;2.90;;;;;;;32.97;29.82;100547.84;108197;1255;60195;-68
2023/09/02 06:04:38;;;;;;;4.40;2.80;;;;;;;33.52;29.31;100541.42;108210;1254;60422;-68
2023/09/02 06:07:05;;;;;;;6.10;3.00;;;;;;;33.98;28.73;100536.03;108224;1256;65184;-67
2023/09/02 06:09:31;;;;;;;6.50;2.30;;;;;;;34.43;27.96;100533.73;108174;1257;62041;-68
2023/09/02 06:11:58;;;;;;;3.40;2.30;;;;;;;34.66;27.81;100535.70;108116;1257;63977;-69
2023/09/02 06:14:24;;;;;;;5.60;2.30;;;;;;;34.99;26.70;100538.78;108139;1253;60306;-69
2023/09/02 06:16:54;;;;;;;3.70;2.20;;;;;;;35.13;26.61;100541.45;108221;1257;59124;-67
2023/09/02 06:19:20;;;;;;;4.80;2.60;;;;;;;35.39;25.96;100544.20;108129;1253;65306;-69
2023/09/02 06:21:47;;;;;;;2.10;1.90;;;;;;;35.79;25.21;100547.54;108157;1254;61771;-70
2023/09/02 06:24:14;;;;;;;4.00;2.40;;;;;;;36.12;24.28;100547.06;108143;1254;63724;-69
2023/09/02 06:26:40;;;;;;;3.30;2.00;;;;;;;36.23;24.15;100543.17;108183;1257;60299;-69
2023/09/02 06:29:07;;;;;;;3.30;2.10;;;;;;;36.48;23.87;100542.93;108191;1254;60381;-69
2023/09/02 06:31:33;;;;;;;4.10;2.00;;;;;;;36.78;23.66;100542.34;108198;1257;60829;-69
2023/09/02 06:34:01;;;;;;;3.40;2.00;;;;;;;36.92;23.27;100542.10;108165;1255;61839;-70
2023/09/02 06:36:28;;;;;;;2.50;2.00;;;;;;;37.18;23.17;100541.06;108215;1254;63715;-69
2023/09/02 06:38:55;;;;;;;2.50;1.90;;;;;;;37.24;22.84;100539.03;108198;1253;60321;-69
2023/09/02 06:41:22;;;;;;;2.80;2.00;;;;;;;37.20;22.39;100540.04;108188;1254;60335;-69
2023/09/02 06:43:49;;;;;;;5.80;1.90;;;;;;;37.32;22.14;100537.74;108183;1254;64936;-68
2023/09/02 06:46:16;;;;;;;2.00;1.60;;;;;;;37.46;21.77;100540.00;108207;1257;61762;-70
2023/09/02 06:48:44;;;;;;;3.90;2.10;;;;;;;37.70;21.98;100542.69;108183;1254;62528;-70
2023/09/02 06:51:10;;;;;;;4.00;2.10;;;;;;;38.11;21.67;100546.36;108201;1254;60328;-69
2023/09/02 06:53:37;;;;;;;2.90;1.90;;;;;;;38.29;21.20;100544.61;108184;1257;60387;-69
2023/09/02 06:56:12;;;;;;;3.90;2.20;;;;;;;38.33;20.85;100542.86;108055;1255;63782;-69
2023/09/02 06:58:39;;;;;;;3.60;2.10;;;;;;;38.34;20.83;100545.31;108193;1254;61546;-69
2023/09/02 07:01:06;;;;;;;5.40;2.30;;;;;;;38.41;20.86;100549.36;108138;1254;62847;-68
2023/09/02 07:03:32;;;;;;;4.90;2.00;;;;;;;38.61;20.67;100552.42;108143;1254;60840;-68
2023/09/02 07:06:05;;;;;;;4.60;2.30;;;;;;;39.03;20.24;100551.52;108141;1253;60057;-69
2023/09/02 07:08:31;;;;;;;3.60;2.00;;;;;;;39.30;19.99;100554.17;108121;1254;65976;-69
2023/09/02 07:10:58;;;;;;;3.00;1.70;;;;;;;39.54;19.59;100555.16;108147;1252;60303;-70
2023/09/02 07:13:25;;;;;;;2.90;1.90;;;;;;;39.86;19.11;100553.90;108167;1256;64160;-69
2023/09/02 07:16:01;;;;;;;2.60;1.60;;;;;;;40.02;18.55;100555.98;108173;1254;59624;-70
2023/09/02 07:18:28;;;;;;;3.00;1.80;;;;;;;40.19;18.70;100560.05;108131;1254;60313;-70
2023/09/02 07:21:01;;;;;;;2.90;1.60;;;;;;;40.27;18.55;100560.59;108120;1253;63963;-69
2023/09/02 07:23:29;;;;;;;4.60;1.70;;;;;;;40.28;18.26;100559.79;108105;1254;60451;-69
2023/09/02 07:25:56;;;;;;;2.20;1.70;;;;;;;40.27;17.88;100556.27;108089;1254;63959;-69
2023/09/02 07:28:23;;;;;;;2.20;1.70;;;;;;;40.10;17.92;100552.80;108072;1255;59565;-69
2023/09/02 07:30:50;;;;;;;3.10;1.40;;;;;;;40.15;17.57;100555.29;108105;1254;60351;-69
2023/09/02 07:33:16;;;;;;;5.40;1.80;;;;;;;40.21;17.61;100554.66;108040;1254;65165;-68
2023/09/02 07:35:43;;;;;;;3.90;1.80;;;;;;;40.36;17.58;100553.23;108025;1254;60265;-69
2023/09/02 07:38:10;;;;;;;3.40;1.80;;;;;;;40.27;17.18;100557.88;108014;1253;60168;-69
2023/09/02 07:40:37;;;;;;;2.40;1.60;;;;;;;40.11;17.53;100557.52;108003;1255;60735;-69
2023/09/02 07:43:03;;;;;;;4.50;1.60;;;;;;;40.26;17.49;100561.06;108016;1254;60450;-69
2023/09/02 07:45:32;;;;;;;2.50;1.60;;;;;;;40.63;17.07;100556.44;108031;1257;65124;-68
2023/09/02 07:48:02;;;;;;;3.20;1.60;;;;;;;40.86;16.73;100559.51;108014;1257;61898;-68
2023/09/02 07:50:28;;;;;;;2.90;1.70;;;;;;;40.77;16.49;100557.45;107916;1254;63942;-69
2023/09/02 07:52:55;;;;;;;2.30;1.60;;;;;;;40.43;16.72;100561.60;108024;1254;60316;-70
2023/09/02 07:55:23;;;;;;;3.20;1.70;;;;;;;40.11;16.91;100559.46;108053;1253;60438;-69
2023/09/02 07:57:50;;;;;;;2.50;1.70;;;;;;;39.92;16.71;100563.04;108072;1254;65234;-69
2023/09/02 08:00:18;;;;;;;5.00;2.00;;;;;;;39.77;16.62;100566.92;108071;1254;61646;-70
2023/09/02 08:02:44;;;;;;;3.50;1.90;;;;;;;39.82;16.47;100562.14;108005;1255;64147;-69
2023/09/02 08:05:11;;;;;;;3.40;2.10;;;;;;;39.54;16.41;100561.54;107973;1254;59166;-69
2023/09/02 08:07:37;;;;;;;3.30;1.90;;;;;;;38.86;17.17;100557.15;108026;1257;59301;-69
2023/09/02 08:10:04;;;;;;;5.50;2.00;;;;;;;38.70;17.32;100559.29;108028;1254;63670;-69
2023/09/02 08:12:32;;;;;;;4.60;2.20;;;;;;;38.68;17.34;100549.45;108043;1257;61735;-70
2023/09/02 08:14:58;;;;;;;5.70;1.90;;;;;;;38.57;17.48;100552.84;108003;1255;64086;-68
2023/09/02 08:17:25;;;;;;;3.70;2.10;;;;;;;38.71;17.46;100555.41;107999;1254;60327;-69
2023/09/02 08:19:52;;;;;;;5.10;1.90;;;;;;;38.97;17.10;100553.89;108003;1254;59701;-69
2023/09/02 08:22:18;;;;;;;4.60;2.20;;;;;;;38.92;16.65;100561.14;108050;1254;65591;-69
2023/09/02 08:24:45;;;;;;;2.60;1.80;;;;;;;38.94;16.86;100558.48;108103;1254;61874;-69
2023/09/02 08:27:11;;;;;;;3.60;1.90;;;;;;;38.93;16.65;100552.73;108051;1254;64147;-69
2023/09/02 08:29:38;;;;;;;2.90;1.80;;;;;;;38.85;16.81;100551.91;108073;1254;59151;-69
2023/09/02 08:32:05;;;;;;;4.50;2.10;;;;;;;38.93;16.95;100555.66;108016;1253;59563;-70
2023/09/02 08:34:31;;;;;;;2.70;1.60;;;;;;;38.37;16.50;100553.52;108060;1254;59263;-69
2023/09/02 08:36:58;;;;;;;3.20;1.70;;;;;;;37.93;16.69;100552.73;108036;1254;61951;-70
2023/09/02 08:39:25;;;;;;;2.60;2.00;;;;;;;38.09;16.81;100553.63;108037;1254;64051;-69
2023/09/02 08:41:51;;;;;;;4.60;2.00;;;;;;;37.95;16.92;100559.55;108033;1257;59824;-71
2023/09/02 08:44:18;;;;;;;3.10;1.80;;;;;;;37.77;17.41;100559.97;107918;1254;60233;-69
2023/09/02 08:46:45;;;;;;;4.10;1.90;;;;;;;37.90;17.38;100561.26;107988;1254;60464;-69
2023/09/02 08:49:14;;;;;;;5.00;2.00;;;;;;;38.37;17.48;100558.77;108096;1254;60841;-69
2023/09/02 08:51:40;;;;;;;2.80;2.00;;;;;;;38.64;17.14;100562.66;108008;1254;62601;-69
2023/09/02 08:54:07;;;;;;;3.60;2.10;;;;;;;38.83;16.72;100561.60;107993;1254;60277;-69
2023/09/02 08:56:37;;;;;;;3.50;2.10;;;;;;;38.62;16.67;100561.31;107965;1254;60363;-69
2023/09/02 08:59:04;;;;;;;3.50;2.10;;;;;;;38.26;17.00;100561.66;107936;1254;65105;-69
2023/09/02 09:01:30;;;;;;;5.30;1.80;;;;;;;38.06;17.34;100558.48;108016;1254;61588;-69
2023/09/02 09:03:57;;;;;;;4.50;2.10;;;;;;;37.65;17.41;100561.76;107961;1254;63834;-68
2023/09/02 09:06:24;;;;;;;4.30;2.10;;;;;;;37.13;17.63;100563.34;107984;1253;60360;-69
2023/09/02 09:08:52;;;;;;;4.20;2.20;;;;;;;37.16;17.88;100560.42;108040;1254;60338;-70
2023/09/02 09:11:18;;;;;;;9.60;2.40;;;;;;;37.36;18.19;100561.50;108244;1254;65397;-69
2023/09/02 09:13:46;;;;;;;4.20;2.00;;;;;;;37.52;17.80;100562.96;108187;1254;61722;-69
2023/09/02 09:16:15;;;;;;;3.90;2.00;;;;;;;37.39;17.68;100561.52;108117;1253;64136;-69
2023/09/02 09:18:42;;;;;;;3.80;2.10;;;;;;;37.25;17.83;100567.16;108315;1253;59329;-69
2023/09/02 09:21:09;;;;;;;3.60;1.80;;;;;;;37.04;17.96;100568.67;108390;1254;60436;-68
2023/09/02 09:23:35;;;;;;;3.30;2.00;;;;;;;36.84;18.02;100566.25;108197;1254;65276;-68
2023/09/02 09:26:03;;;;;;;4.60;2.40;;;;;;;36.66;18.24;100567.13;108368;1254;60331;-69
2023/09/02 09:28:51;;;;;;;7.20;2.40;;;;;;;36.27;19.02;100569.27;108341;1256;62764;-69
2023/09/02 09:31:18;;;;;;;5.00;2.40;;;;;;;36.31;18.52;100562.80;108326;1254;60411;-67
2023/09/02 09:33:51;;;;;;;2.50;2.00;;;;;;;36.42;18.58;100559.52;108330;1254;60440;-69
2023/09/02 09:36:20;;;;;;;3.80;2.50;;;;;;;36.59;18.78;100556.05;108354;1254;63830;-68
2023/09/02 09:38:58;;;;;;;6.50;2.40;;;;;;;36.95;18.58;100559.34;108290;1254;60254;-69
2023/09/02 09:41:25;;;;;;;3.70;2.20;;;;;;;37.32;17.95;100555.69;108282;1253;64112;-70
2023/09/02 09:44:09;;;;;;;4.70;2.10;;;;;;;37.55;17.96;100559.69;108313;1253;60942;-69
2023/09/02 09:46:47;;;;;;;3.00;2.00;;;;;;;37.74;17.46;100559.70;108282;1253;59155;-69
2023/09/02 09:49:27;;;;;;;6.90;2.50;;;;;;;37.87;17.39;100558.20;108320;1252;65117;-70
2023/09/02 09:51:59;;;;;;;5.20;2.50;;;;;;;38.20;17.36;100557.58;108349;1254;60306;-69
2023/09/02 09:54:37;;;;;;;4.70;2.40;;;;;;;38.19;17.14;100559.05;108370;1254;63847;-67
2023/09/02 09:57:10;;;;;;;6.90;2.60;;;;;;;38.43;17.25;100556.81;108314;1254;59030;-69
2023/09/02 09:59:37;;;;;;;4.50;2.10;;;;;;;38.29;17.32;100560.27;108368;1252;58654;-71
2023/09/02 10:02:06;;;;;;;3.40;2.20;;;;;;;37.78;17.21;100559.23;108145;1252;65550;-69
2023/09/02 10:04:33;;;;;;;5.60;2.40;;;;;;;37.34;18.00;100560.77;108208;1253;61714;-70
2023/09/02 10:07:00;;;;;;;4.50;2.20;;;;;;;36.98;18.07;100560.94;108300;1254;65160;-68
2023/09/02 10:09:44;;;;;;;6.20;2.60;;;;;;;36.45;18.30;100562.15;108315;1253;60214;-69
2023/09/02 10:12:15;;;;;;;4.90;2.50;;;;;;;35.92;19.04;100562.70;108368;1254;59155;-69
2023/09/02 10:14:44;;;;;;;6.60;2.70;;;;;;;35.75;19.32;100562.29;108074;1253;65259;-69
2023/09/02 10:17:10;;;;;;;4.70;2.50;;;;;;;35.77;19.44;100565.36;108329;1253;60447;-69
2023/09/02 10:19:37;;;;;;;5.00;2.40;;;;;;;35.85;19.06;100562.20;108222;1255;64013;-69
2023/09/02 10:22:04;;;;;;;3.00;2.30;;;;;;;36.04;18.39;100559.17;108170;1254;60449;-69
2023/09/02 10:24:37;;;;;;;2.70;2.10;;;;;;;36.24;18.40;100559.58;108281;1254;60328;-69
2023/09/02 10:27:08;;;;;;;3.20;2.10;;;;;;;36.51;18.05;100553.92;108346;1254;65078;-69
2023/09/02 10:29:36;;;;;;;7.10;2.50;;;;;;;36.57;17.80;100553.11;108271;1253;60427;-69
2023/09/02 10:32:09;;;;;;;3.60;2.10;;;;;;;36.62;17.93;100554.08;108149;1254;64068;-69
2023/09/02 10:34:47;;;;;;;5.80;2.20;;;;;;;36.72;17.62;100551.54;108307;1252;60363;-69
2023/09/02 10:37:15;;;;;;;2.80;2.40;;;;;;;36.77;17.84;100549.61;108107;1253;60332;-69
2023/09/02 10:39:48;;;;;;;4.80;2.10;;;;;;;36.75;17.91;100551.89;108291;1252;65092;-68
2023/09/02 10:42:15;;;;;;;4.50;2.60;;;;;;;36.68;18.13;100553.54;108325;1254;60292;-69
2023/09/02 10:44:42;;;;;;;3.50;2.40;;;;;;;36.73;18.21;100550.48;108041;1254;63712;-70
2023/09/02 10:47:08;;;;;;;7.50;2.50;;;;;;;36.55;17.99;100545.30;108233;1253;60284;-69
2023/09/02 10:49:35;;;;;;;3.70;2.30;;;;;;;36.30;18.14;100546.65;108139;1253;256371;-69
2023/09/02 10:53:52;;;;;;;3.80;2.50;;;;;;;34.55;19.84;100543.72;104928;1289;601192;-69
2023/09/02 10:56:28;;;;;;;3.40;2.20;;;;;;;35.54;19.05;100546.13;107342;1266;59238;-69
2023/09/02 10:58:57;;;;;;;2.90;2.30;;;;;;;35.57;19.37;100547.23;107271;1271;59267;-69
2023/09/02 11:01:25;;;;;;;4.80;2.50;;;;;;;35.58;19.44;100550.35;107331;1271;62045;-70
2023/09/02 11:03:53;;;;;;;3.60;2.20;;;;;;;35.65;19.60;100548.28;107349;1266;61491;-69
2023/09/02 11:06:22;;;;;;;5.30;2.10;;;;;;;35.81;19.02;100547.33;107386;1271;226060;-69
2023/09/02 11:08:53;;;;;;;4.50;2.20;;;;;;;35.86;18.65;100550.77;108177;1256;59165;-69
2023/09/02 11:11:21;;;;;;;4.70;2.70;;;;;;;35.82;18.71;100549.22;108086;1256;58762;-68
2023/09/02 11:14:07;;;;;;;5.10;2.50;;;;;;;35.89;18.63;100545.70;107940;1261;62112;-69
2023/09/02 11:16:38;;;;;;;8.30;3.20;;;;;;;36.31;18.77;100538.23;107944;1256;61396;-70
2023/09/02 11:19:08;;;;;;;5.90;2.60;;;;;;;36.76;18.46;100540.15;107905;1258;63747;-69
2023/09/02 11:21:39;;;;;;;3.90;2.00;;;;;;;37.27;17.94;100542.48;107873;1256;60963;-69